Alma — P3MF8 — position and weather

sailwx.info

Track history (hours):
 
Tides and Currents Weather Stations Pressure Air Temp Water Temp Dewpoint Dewpoint Depression Visibility Wind Speed Wind Dir Waves Ship Positions

Alma

Last reported at 2018-Jul-23 01:55 UTC. Time now 2018-Jul-23 02:09 UTC.
Position N 60°01' E 029°28'.

Length 98 m; draft 5.9 m.

Type: Cargo ship. MMSI: 212856000.

Date/timePositionNaut miles runAvg speedWind from/ knotsBaromVisibWave heightAir tempDewpointWater temp
2018-Jul-23 01:55N 60°01' E 029°28'5 9.3
2018-Jul-23 01:26N 60°01' E 029°19'0 0.1
2018-Jul-23 00:53N 60°01' E 029°19'0 0.1
2018-Jul-23 00:14N 60°01' E 029°19'0 0.0
2018-Jul-22 23:59N 60°01' E 029°19'0 0.1
2018-Jul-22 23:23N 60°01' E 029°19'0 0.0
2018-Jul-22 22:56N 60°01' E 029°19'0 0.0
2018-Jul-22 22:27N 60°01' E 029°19'0 0.0
2018-Jul-22 21:44N 60°01' E 029°19'0 0.0
2018-Jul-22 21:29N 60°01' E 029°19'0 0.0
2018-Jul-22 20:49N 60°01' E 029°19'0 0.0
2018-Jul-22 20:25N 60°01' E 029°19'0 0.0
2018-Jul-22 19:52N 60°01' E 029°19'0 0.0
2018-Jul-22 19:17N 60°01' E 029°19'0 0.0
2018-Jul-22 18:56N 60°01' E 029°19'0 0.0
2018-Jul-22 18:26N 60°01' E 029°19'0 0.0
2018-Jul-22 17:56N 60°01' E 029°19'0 0.0
2018-Jul-22 17:26N 60°01' E 029°19'0 0.0
2018-Jul-22 16:54N 60°01' E 029°19'0 0.0
2018-Jul-22 16:30N 60°01' E 029°19'0 0.0
2018-Jul-22 15:56N 60°01' E 029°19'0 0.0
2018-Jul-22 14:54N 60°01' E 029°19'0 0.0
2018-Jul-22 14:29N 60°01' E 029°19'0 0.0
2018-Jul-22 13:58N 60°01' E 029°19'0 0.0
2018-Jul-22 13:30N 60°01' E 029°19'0 0.0
2018-Jul-22 13:00N 60°01' E 029°19'0 0.0
2018-Jul-22 12:30N 60°01' E 029°19'0 0.0
2018-Jul-22 11:54N 60°01' E 029°19'0 0.1
2018-Jul-22 10:20N 60°01' E 029°19'3 6.5
2018-Jul-22 09:49N 60°02' E 029°13'512.4
2018-Jul-22 09:23N 60°02' E 029°02'512.4
2018-Jul-22 08:59N 60°02' E 028°52'714.3
2018-Jul-22 08:30N 60°02' E 028°38'714.5
2018-Jul-22 08:00N 60°04' E 028°24'714.7
2018-Jul-22 07:30N 60°08' E 028°12'815.0
2018-Jul-22 07:00N 60°10' E 027°57'714.9
2018-Jul-22 06:30N 60°10' E 027°42'1017.6
2018-Jul-22 05:56N 60°05' E 027°25'511.6
2018-Jul-22 05:30N 60°02' E 027°16'815.6
2018-Jul-22 05:00N 59°58' E 027°03'815.4
2018-Jul-22 04:30N 59°59' E 026°48'815.2
2018-Jul-22 04:00N 59°59' E 026°33'815.3
2018-Jul-22 03:30N 59°57' E 026°18'3515.0
2018-Jul-22 01:12N 59°49' E 025°11'1015.1
2018-Jul-22 00:32N 59°47' E 024°51'515.2
2018-Jul-22 00:13N 59°46' E 024°41'2815.0
2018-Jul-21 22:19N 59°38' E 023°47'515.1
2018-Jul-21 22:00N 59°37' E 023°38'1015.3
2018-Jul-21 21:21N 59°34' E 023°19'515.3
2018-Jul-21 21:00N 59°32' E 023°09'21514.7
2018-Jul-21 06:22N 56°52' E 018°36'614.9
2018-Jul-21 05:59N 56°48' E 018°28'714.9
2018-Jul-21 05:30N 56°44' E 018°18'814.8
2018-Jul-21 05:00N 56°39' E 018°07'2714.9
2018-Jul-21 03:11N 56°23' E 017°29'515.0
2018-Jul-21 02:49N 56°19' E 017°21'514.9
2018-Jul-21 02:30N 56°16' E 017°15'714.9
2018-Jul-21 02:00N 56°12' E 017°04'714.8
2018-Jul-21 01:30N 56°07' E 016°54'714.6
2018-Jul-21 01:00N 56°03' E 016°43'714.6
2018-Jul-21 00:30N 55°59' E 016°31'714.7
2018-Jul-21 00:00N 55°56' E 016°20'714.7
2018-Jul-20 23:30N 55°52' E 016°09'714.8
2018-Jul-20 23:00N 55°48' E 015°57'714.8
2018-Jul-20 22:30N 55°45' E 015°46'814.9
2018-Jul-20 22:00N 55°41' E 015°34'714.8
2018-Jul-20 21:30N 55°37' E 015°23'714.7
2018-Jul-20 21:00N 55°34' E 015°12'714.9
2018-Jul-20 20:30N 55°30' E 015°00'815.1
2018-Jul-20 20:00N 55°26' E 014°49'714.8
2018-Jul-20 19:30N 55°22' E 014°38'714.9
2018-Jul-20 19:00N 55°17' E 014°29'714.8
2018-Jul-20 18:30N 55°12' E 014°20'714.6
2018-Jul-20 18:00N 55°10' E 014°07'2214.9
2018-Jul-20 16:31N 55°12' E 013°28'415.1
2018-Jul-20 16:16N 55°13' E 013°22'614.9
2018-Jul-20 15:51N 55°14' E 013°11'614.6
2018-Jul-20 15:26N 55°14' E 013°00'714.6
2018-Jul-20 14:56N 55°16' E 012°48'614.4
2018-Jul-20 14:30N 55°18' E 012°38'714.2
2018-Jul-20 14:00N 55°25' E 012°40'714.1
2018-Jul-20 13:30N 55°32' E 012°42'611.0
2018-Jul-20 13:00N 55°38' E 012°42'510.7
2018-Jul-20 12:30N 55°43' E 012°41'713.4
2018-Jul-20 12:00N 55°50' E 012°41'713.5
2018-Jul-20 11:30N 55°56' E 012°38'713.4
2018-Jul-20 11:01N 56°03' E 012°38'713.6
2018-Jul-20 10:30N 56°07' E 012°29'2012.6
2018-Jul-20 08:56N 56°20' E 012°02'714.8
2018-Jul-20 08:26N 56°28' E 011°59'814.8
2018-Jul-20 07:53N 56°35' E 011°56'614.8
2018-Jul-20 07:28N 56°41' E 011°53'714.5
2018-Jul-20 07:00N 56°48' E 011°50'714.6
2018-Jul-20 06:30N 56°55' E 011°46'714.3
2018-Jul-20 06:00N 57°02' E 011°41'714.0
2018-Jul-20 05:30N 57°08' E 011°37'713.9
2018-Jul-20 05:00N 57°15' E 011°33'714.3
2018-Jul-20 04:30N 57°21' E 011°28'714.6
2018-Jul-20 04:00N 57°28' E 011°23'714.4
2018-Jul-20 03:30N 57°33' E 011°13'714.2
2018-Jul-20 03:00N 57°38' E 011°03'714.4
2018-Jul-20 02:31N 57°43' E 010°54'714.5
2018-Jul-20 02:00N 57°47' E 010°43'815.8
2018-Jul-20 01:30N 57°47' E 010°28'815.7
2018-Jul-20 01:00N 57°47' E 010°14'815.6
2018-Jul-20 00:30N 57°47' E 009°59'1015.4
2018-Jul-19 23:52N 57°46' E 009°41'915.3
2018-Jul-19 23:15N 57°45' E 009°23'415.5
2018-Jul-19 23:00N 57°45' E 009°16'1315.2
2018-Jul-19 22:07N 57°43' E 008°51'515.2
2018-Jul-19 21:49N 57°43' E 008°42'515.2
2018-Jul-19 21:28N 57°43' E 008°32'915.1
2018-Jul-19 20:52N 57°42' E 008°16'615.0
2018-Jul-19 20:28N 57°41' E 008°05'715.0
2018-Jul-19 20:01N 57°41' E 007°52'1014.9
2018-Jul-19 19:22N 57°42' E 007°34'514.7
2018-Jul-19 19:00N 57°42' E 007°24'714.8
2018-Jul-19 18:30N 57°43' E 007°10'7614.2
2018-Jul-19 13:10N 58°22' E 005°08'214.4
2018-Jul-19 13:01N 58°24' E 005°05'714.3
2018-Jul-19 12:31N 58°28' E 004°55'714.3
2018-Jul-19 12:00N 58°33' E 004°45'  
2018-Jul-15 04:48N 55°21' E 002°35'1313.8
2018-Jul-15 03:53N 55°11' E 002°47'614.2
2018-Jul-15 03:26N 55°05' E 002°54'614.4
2018-Jul-15 03:00N 55°00' E 002°60'814.5
2018-Jul-15 02:27N 54°54' E 003°08'614.3
2018-Jul-15 02:00N 54°48' E 003°13'714.2
2018-Jul-15 01:30N 54°41' E 003°18'814.2
2018-Jul-15 00:57N 54°34' E 003°23'914.1
2018-Jul-15 00:19N 54°26' E 003°29'1114.0
2018-Jul-14 23:33N 54°16' E 003°36'114.1
2018-Jul-14 23:28N 54°15' E 003°36'713.9
2018-Jul-14 23:00N 54°09' E 003°41'713.8
2018-Jul-14 22:30N 54°02' E 003°45'612.0
2018-Jul-14 21:59N 53°56' E 003°46'714.6
2018-Jul-14 21:29N 53°54' E 003°34'713.7
2018-Jul-14 20:59N 53°51' E 003°24'714.5
2018-Jul-14 20:30N 53°46' E 003°17'714.5
2018-Jul-14 20:00N 53°40' E 003°09'714.2
2018-Jul-14 19:30N 53°33' E 003°04'714.4
2018-Jul-14 19:00N 53°27' E 002°59'714.7
2018-Jul-14 18:30N 53°20' E 002°53'714.9
2018-Jul-14 18:00N 53°14' E 002°47'815.2
2018-Jul-14 17:30N 53°06' E 002°44'815.4
2018-Jul-14 16:59N 52°58' E 002°43'715.6
2018-Jul-14 16:30N 52°52' E 002°49'815.3
2018-Jul-14 16:00N 52°46' E 002°58'815.2
2018-Jul-14 15:30N 52°41' E 003°07'815.1
2018-Jul-14 15:00N 52°35' E 003°15'713.3
2018-Jul-14 14:30N 52°32' E 003°24'1413.9
2018-Jul-14 13:31N 52°31' E 003°47'714.5
2018-Jul-14 13:00N 52°31' E 003°59'714.7
2018-Jul-14 12:30N 52°31' E 004°11'714.4
2018-Jul-14 12:00N 52°29' E 004°22'612.3
2018-Jul-14 11:30N 52°28' E 004°32'2 4.6
2018-Jul-14 11:00N 52°28' E 004°36'2 3.7
2018-Jul-14 10:30N 52°28' E 004°39'1 0.9
2018-Jul-14 09:56N 52°28' E 004°40'0 0.0
2018-Jul-14 09:29N 52°28' E 004°40'0 0.0
2018-Jul-14 08:59N 52°28' E 004°40'0 0.0
2018-Jul-14 08:29N 52°28' E 004°40'0 0.0
2018-Jul-14 07:59N 52°28' E 004°40'0 0.0
2018-Jul-14 07:29N 52°28' E 004°40'0 0.0
2018-Jul-14 06:59N 52°28' E 004°40'0 0.0
2018-Jul-14 06:29N 52°28' E 004°40'0 0.0
2018-Jul-14 05:59N 52°28' E 004°40'0 0.0
2018-Jul-14 05:29N 52°28' E 004°40'0 0.0
2018-Jul-14 04:59N 52°28' E 004°40'0 0.0
2018-Jul-14 04:29N 52°28' E 004°40'0 0.0
2018-Jul-14 03:59N 52°28' E 004°40'0 0.0
2018-Jul-14 03:29N 52°28' E 004°40'0 0.0
2018-Jul-14 02:59N 52°28' E 004°40'0 0.0
2018-Jul-14 02:26N 52°28' E 004°40'0 0.0
2018-Jul-14 01:59N 52°28' E 004°40'0 0.0
2018-Jul-14 01:29N 52°28' E 004°40'0 0.0
2018-Jul-14 00:59N 52°28' E 004°40'0 0.0
2018-Jul-14 00:29N 52°28' E 004°40'0 0.0
2018-Jul-13 23:59N 52°28' E 004°40'0 0.0
2018-Jul-13 23:29N 52°28' E 004°40'0 0.0
2018-Jul-13 22:59N 52°28' E 004°40'0 0.0
2018-Jul-13 22:29N 52°28' E 004°40'0 0.0
2018-Jul-13 21:59N 52°28' E 004°40'0 0.0
2018-Jul-13 21:29N 52°28' E 004°40'0 0.0
2018-Jul-13 20:59N 52°28' E 004°40'0 0.0
2018-Jul-13 20:29N 52°28' E 004°40'0 0.0
2018-Jul-13 19:59N 52°28' E 004°40'0 0.0
2018-Jul-13 19:29N 52°28' E 004°40'0 0.0
2018-Jul-13 18:56N 52°28' E 004°40'0 0.0
2018-Jul-13 18:29N 52°28' E 004°40'0 0.0
2018-Jul-13 17:59N 52°28' E 004°40'0 0.0
2018-Jul-13 17:26N 52°28' E 004°40'0 0.0
2018-Jul-13 16:59N 52°28' E 004°40'0 0.0
2018-Jul-13 16:29N 52°28' E 004°40'0 0.0
2018-Jul-13 15:59N 52°28' E 004°40'0 0.0
2018-Jul-13 15:29N 52°28' E 004°40'0 0.0
2018-Jul-13 14:56N 52°28' E 004°40'0 0.0
2018-Jul-13 14:29N 52°28' E 004°40'0 0.0
2018-Jul-13 13:29N 52°28' E 004°40'0 0.0
2018-Jul-13 12:59N 52°28' E 004°40'0 0.0
2018-Jul-13 12:29N 52°28' E 004°40'0 0.0
2018-Jul-13 11:59N 52°28' E 004°40'0 0.0
2018-Jul-13 11:29N 52°28' E 004°40'0 0.0
2018-Jul-13 10:59N 52°28' E 004°40'0 0.0
2018-Jul-13 10:26N 52°28' E 004°40'0 0.0
2018-Jul-13 09:59N 52°28' E 004°40'0 0.0
2018-Jul-13 09:29N 52°28' E 004°40'0 0.0
2018-Jul-13 08:59N 52°28' E 004°40'0 0.0
2018-Jul-13 08:29N 52°28' E 004°40'0 0.0
2018-Jul-13 07:56N 52°28' E 004°40'0 0.0
2018-Jul-13 07:29N 52°28' E 004°40'0 0.0
2018-Jul-13 06:59N 52°28' E 004°40'0 0.0
2018-Jul-13 06:26N 52°28' E 004°40'0 0.0
2018-Jul-13 05:59N 52°28' E 004°40'0 0.0
2018-Jul-13 05:29N 52°28' E 004°40'0 0.0
2018-Jul-13 04:59N 52°28' E 004°40'0 0.0
2018-Jul-13 04:29N 52°28' E 004°40'0 0.0
2018-Jul-13 03:59N 52°28' E 004°40'0 0.0
2018-Jul-13 03:26N 52°28' E 004°40'0 0.0
2018-Jul-13 02:59N 52°28' E 004°40'0 0.0
2018-Jul-13 02:29N 52°28' E 004°40'0 0.0
2018-Jul-13 01:59N 52°28' E 004°40'  
Track history (hours):
 
Tides and Currents Weather Stations Pressure Air Temp Water Temp Dewpoint Dewpoint Depression Visibility Wind Speed Wind Dir Waves Ship Positions

Alma

Last reported at 2018-Jul-23 01:55 UTC. Time now 2018-Jul-23 02:09 UTC.
Position N 60°01' E 029°28'.

Length 98 m; draft 5.9 m.

Type: Cargo ship. MMSI: 212856000.

Date/timePositionNaut miles runAvg speedWind from/ knotsBaromVisibWave heightAir tempDewpointWater temp
2018-Jul-23 01:55N 60°01' E 029°28'5 9.3
2018-Jul-23 01:26N 60°01' E 029°19'0 0.1
2018-Jul-23 00:53N 60°01' E 029°19'0 0.1
2018-Jul-23 00:14N 60°01' E 029°19'0 0.0
2018-Jul-22 23:59N 60°01' E 029°19'0 0.1
2018-Jul-22 23:23N 60°01' E 029°19'0 0.0
2018-Jul-22 22:56N 60°01' E 029°19'0 0.0
2018-Jul-22 22:27N 60°01' E 029°19'0 0.0
2018-Jul-22 21:44N 60°01' E 029°19'0 0.0
2018-Jul-22 21:29N 60°01' E 029°19'0 0.0
2018-Jul-22 20:49N 60°01' E 029°19'0 0.0
2018-Jul-22 20:25N 60°01' E 029°19'0 0.0
2018-Jul-22 19:52N 60°01' E 029°19'0 0.0
2018-Jul-22 19:17N 60°01' E 029°19'0 0.0
2018-Jul-22 18:56N 60°01' E 029°19'0 0.0
2018-Jul-22 18:26N 60°01' E 029°19'0 0.0
2018-Jul-22 17:56N 60°01' E 029°19'0 0.0
2018-Jul-22 17:26N 60°01' E 029°19'0 0.0
2018-Jul-22 16:54N 60°01' E 029°19'0 0.0
2018-Jul-22 16:30N 60°01' E 029°19'0 0.0
2018-Jul-22 15:56N 60°01' E 029°19'0 0.0
2018-Jul-22 14:54N 60°01' E 029°19'0 0.0
2018-Jul-22 14:29N 60°01' E 029°19'0 0.0
2018-Jul-22 13:58N 60°01' E 029°19'0 0.0
2018-Jul-22 13:30N 60°01' E 029°19'0 0.0
2018-Jul-22 13:00N 60°01' E 029°19'0 0.0
2018-Jul-22 12:30N 60°01' E 029°19'0 0.0
2018-Jul-22 11:54N 60°01' E 029°19'0 0.1
2018-Jul-22 10:20N 60°01' E 029°19'3 6.5
2018-Jul-22 09:49N 60°02' E 029°13'512.4
2018-Jul-22 09:23N 60°02' E 029°02'512.4
2018-Jul-22 08:59N 60°02' E 028°52'714.3
2018-Jul-22 08:30N 60°02' E 028°38'714.5
2018-Jul-22 08:00N 60°04' E 028°24'714.7
2018-Jul-22 07:30N 60°08' E 028°12'815.0
2018-Jul-22 07:00N 60°10' E 027°57'714.9
2018-Jul-22 06:30N 60°10' E 027°42'1017.6
2018-Jul-22 05:56N 60°05' E 027°25'511.6
2018-Jul-22 05:30N 60°02' E 027°16'815.6
2018-Jul-22 05:00N 59°58' E 027°03'815.4
2018-Jul-22 04:30N 59°59' E 026°48'815.2
2018-Jul-22 04:00N 59°59' E 026°33'815.3
2018-Jul-22 03:30N 59°57' E 026°18'3515.0
2018-Jul-22 01:12N 59°49' E 025°11'1015.1
2018-Jul-22 00:32N 59°47' E 024°51'515.2
2018-Jul-22 00:13N 59°46' E 024°41'2815.0
2018-Jul-21 22:19N 59°38' E 023°47'515.1
2018-Jul-21 22:00N 59°37' E 023°38'1015.3
2018-Jul-21 21:21N 59°34' E 023°19'515.3
2018-Jul-21 21:00N 59°32' E 023°09'21514.7
2018-Jul-21 06:22N 56°52' E 018°36'614.9
2018-Jul-21 05:59N 56°48' E 018°28'714.9
2018-Jul-21 05:30N 56°44' E 018°18'814.8
2018-Jul-21 05:00N 56°39' E 018°07'2714.9
2018-Jul-21 03:11N 56°23' E 017°29'515.0
2018-Jul-21 02:49N 56°19' E 017°21'514.9
2018-Jul-21 02:30N 56°16' E 017°15'714.9
2018-Jul-21 02:00N 56°12' E 017°04'714.8
2018-Jul-21 01:30N 56°07' E 016°54'714.6
2018-Jul-21 01:00N 56°03' E 016°43'714.6
2018-Jul-21 00:30N 55°59' E 016°31'714.7
2018-Jul-21 00:00N 55°56' E 016°20'714.7
2018-Jul-20 23:30N 55°52' E 016°09'714.8
2018-Jul-20 23:00N 55°48' E 015°57'714.8
2018-Jul-20 22:30N 55°45' E 015°46'814.9
2018-Jul-20 22:00N 55°41' E 015°34'714.8
2018-Jul-20 21:30N 55°37' E 015°23'714.7
2018-Jul-20 21:00N 55°34' E 015°12'714.9
2018-Jul-20 20:30N 55°30' E 015°00'815.1
2018-Jul-20 20:00N 55°26' E 014°49'714.8
2018-Jul-20 19:30N 55°22' E 014°38'714.9
2018-Jul-20 19:00N 55°17' E 014°29'714.8
2018-Jul-20 18:30N 55°12' E 014°20'714.6
2018-Jul-20 18:00N 55°10' E 014°07'2214.9
2018-Jul-20 16:31N 55°12' E 013°28'415.1
2018-Jul-20 16:16N 55°13' E 013°22'614.9
2018-Jul-20 15:51N 55°14' E 013°11'614.6
2018-Jul-20 15:26N 55°14' E 013°00'714.6
2018-Jul-20 14:56N 55°16' E 012°48'614.4
2018-Jul-20 14:30N 55°18' E 012°38'714.2
2018-Jul-20 14:00N 55°25' E 012°40'714.1
2018-Jul-20 13:30N 55°32' E 012°42'611.0
2018-Jul-20 13:00N 55°38' E 012°42'510.7
2018-Jul-20 12:30N 55°43' E 012°41'713.4
2018-Jul-20 12:00N 55°50' E 012°41'713.5
2018-Jul-20 11:30N 55°56' E 012°38'713.4
2018-Jul-20 11:01N 56°03' E 012°38'713.6
2018-Jul-20 10:30N 56°07' E 012°29'2012.6
2018-Jul-20 08:56N 56°20' E 012°02'714.8
2018-Jul-20 08:26N 56°28' E 011°59'814.8
2018-Jul-20 07:53N 56°35' E 011°56'614.8
2018-Jul-20 07:28N 56°41' E 011°53'714.5
2018-Jul-20 07:00N 56°48' E 011°50'714.6
2018-Jul-20 06:30N 56°55' E 011°46'714.3
2018-Jul-20 06:00N 57°02' E 011°41'714.0
2018-Jul-20 05:30N 57°08' E 011°37'713.9
2018-Jul-20 05:00N 57°15' E 011°33'714.3
2018-Jul-20 04:30N 57°21' E 011°28'714.6
2018-Jul-20 04:00N 57°28' E 011°23'714.4
2018-Jul-20 03:30N 57°33' E 011°13'714.2
2018-Jul-20 03:00N 57°38' E 011°03'714.4
2018-Jul-20 02:31N 57°43' E 010°54'714.5
2018-Jul-20 02:00N 57°47' E 010°43'815.8
2018-Jul-20 01:30N 57°47' E 010°28'815.7
2018-Jul-20 01:00N 57°47' E 010°14'815.6
2018-Jul-20 00:30N 57°47' E 009°59'1015.4
2018-Jul-19 23:52N 57°46' E 009°41'915.3
2018-Jul-19 23:15N 57°45' E 009°23'415.5
2018-Jul-19 23:00N 57°45' E 009°16'1315.2
2018-Jul-19 22:07N 57°43' E 008°51'515.2
2018-Jul-19 21:49N 57°43' E 008°42'515.2
2018-Jul-19 21:28N 57°43' E 008°32'915.1
2018-Jul-19 20:52N 57°42' E 008°16'615.0
2018-Jul-19 20:28N 57°41' E 008°05'715.0
2018-Jul-19 20:01N 57°41' E 007°52'1014.9
2018-Jul-19 19:22N 57°42' E 007°34'514.7
2018-Jul-19 19:00N 57°42' E 007°24'714.8
2018-Jul-19 18:30N 57°43' E 007°10'7614.2
2018-Jul-19 13:10N 58°22' E 005°08'214.4
2018-Jul-19 13:01N 58°24' E 005°05'714.3
2018-Jul-19 12:31N 58°28' E 004°55'714.3
2018-Jul-19 12:00N 58°33' E 004°45'  
2018-Jul-15 04:48N 55°21' E 002°35'1313.8
2018-Jul-15 03:53N 55°11' E 002°47'614.2
2018-Jul-15 03:26N 55°05' E 002°54'614.4
2018-Jul-15 03:00N 55°00' E 002°60'814.5
2018-Jul-15 02:27N 54°54' E 003°08'614.3
2018-Jul-15 02:00N 54°48' E 003°13'714.2
2018-Jul-15 01:30N 54°41' E 003°18'814.2
2018-Jul-15 00:57N 54°34' E 003°23'914.1
2018-Jul-15 00:19N 54°26' E 003°29'1114.0
2018-Jul-14 23:33N 54°16' E 003°36'114.1
2018-Jul-14 23:28N 54°15' E 003°36'713.9
2018-Jul-14 23:00N 54°09' E 003°41'713.8
2018-Jul-14 22:30N 54°02' E 003°45'612.0
2018-Jul-14 21:59N 53°56' E 003°46'714.6
2018-Jul-14 21:29N 53°54' E 003°34'713.7
2018-Jul-14 20:59N 53°51' E 003°24'714.5
2018-Jul-14 20:30N 53°46' E 003°17'714.5
2018-Jul-14 20:00N 53°40' E 003°09'714.2
2018-Jul-14 19:30N 53°33' E 003°04'714.4
2018-Jul-14 19:00N 53°27' E 002°59'714.7
2018-Jul-14 18:30N 53°20' E 002°53'714.9
2018-Jul-14 18:00N 53°14' E 002°47'815.2
2018-Jul-14 17:30N 53°06' E 002°44'815.4
2018-Jul-14 16:59N 52°58' E 002°43'715.6
2018-Jul-14 16:30N 52°52' E 002°49'815.3
2018-Jul-14 16:00N 52°46' E 002°58'815.2
2018-Jul-14 15:30N 52°41' E 003°07'815.1
2018-Jul-14 15:00N 52°35' E 003°15'713.3
2018-Jul-14 14:30N 52°32' E 003°24'1413.9
2018-Jul-14 13:31N 52°31' E 003°47'714.5
2018-Jul-14 13:00N 52°31' E 003°59'714.7
2018-Jul-14 12:30N 52°31' E 004°11'714.4
2018-Jul-14 12:00N 52°29' E 004°22'612.3
2018-Jul-14 11:30N 52°28' E 004°32'2 4.6
2018-Jul-14 11:00N 52°28' E 004°36'2 3.7
2018-Jul-14 10:30N 52°28' E 004°39'1 0.9
2018-Jul-14 09:56N 52°28' E 004°40'0 0.0
2018-Jul-14 09:29N 52°28' E 004°40'0 0.0
2018-Jul-14 08:59N 52°28' E 004°40'0 0.0
2018-Jul-14 08:29N 52°28' E 004°40'0 0.0
2018-Jul-14 07:59N 52°28' E 004°40'0 0.0
2018-Jul-14 07:29N 52°28' E 004°40'0 0.0
2018-Jul-14 06:59N 52°28' E 004°40'0 0.0
2018-Jul-14 06:29N 52°28' E 004°40'0 0.0
2018-Jul-14 05:59N 52°28' E 004°40'0 0.0
2018-Jul-14 05:29N 52°28' E 004°40'0 0.0
2018-Jul-14 04:59N 52°28' E 004°40'0 0.0
2018-Jul-14 04:29N 52°28' E 004°40'0 0.0
2018-Jul-14 03:59N 52°28' E 004°40'0 0.0
2018-Jul-14 03:29N 52°28' E 004°40'0 0.0
2018-Jul-14 02:59N 52°28' E 004°40'0 0.0
2018-Jul-14 02:26N 52°28' E 004°40'0 0.0
2018-Jul-14 01:59N 52°28' E 004°40'0 0.0
2018-Jul-14 01:29N 52°28' E 004°40'0 0.0
2018-Jul-14 00:59N 52°28' E 004°40'0 0.0
2018-Jul-14 00:29N 52°28' E 004°40'0 0.0
2018-Jul-13 23:59N 52°28' E 004°40'0 0.0
2018-Jul-13 23:29N 52°28' E 004°40'0 0.0
2018-Jul-13 22:59N 52°28' E 004°40'0 0.0
2018-Jul-13 22:29N 52°28' E 004°40'0 0.0
2018-Jul-13 21:59N 52°28' E 004°40'0 0.0
2018-Jul-13 21:29N 52°28' E 004°40'0 0.0
2018-Jul-13 20:59N 52°28' E 004°40'0 0.0
2018-Jul-13 20:29N 52°28' E 004°40'0 0.0
2018-Jul-13 19:59N 52°28' E 004°40'0 0.0
2018-Jul-13 19:29N 52°28' E 004°40'0 0.0
2018-Jul-13 18:56N 52°28' E 004°40'0 0.0
2018-Jul-13 18:29N 52°28' E 004°40'0 0.0
2018-Jul-13 17:59N 52°28' E 004°40'0 0.0
2018-Jul-13 17:26N 52°28' E 004°40'0 0.0
2018-Jul-13 16:59N 52°28' E 004°40'0 0.0
2018-Jul-13 16:29N 52°28' E 004°40'0 0.0
2018-Jul-13 15:59N 52°28' E 004°40'0 0.0
2018-Jul-13 15:29N 52°28' E 004°40'0 0.0
2018-Jul-13 14:56N 52°28' E 004°40'0 0.0
2018-Jul-13 14:29N 52°28' E 004°40'0 0.0
2018-Jul-13 13:29N 52°28' E 004°40'0 0.0
2018-Jul-13 12:59N 52°28' E 004°40'0 0.0
2018-Jul-13 12:29N 52°28' E 004°40'0 0.0
2018-Jul-13 11:59N 52°28' E 004°40'0 0.0
2018-Jul-13 11:29N 52°28' E 004°40'0 0.0
2018-Jul-13 10:59N 52°28' E 004°40'0 0.0
2018-Jul-13 10:26N 52°28' E 004°40'0 0.0
2018-Jul-13 09:59N 52°28' E 004°40'0 0.0
2018-Jul-13 09:29N 52°28' E 004°40'0 0.0
2018-Jul-13 08:59N 52°28' E 004°40'0 0.0
2018-Jul-13 08:29N 52°28' E 004°40'0 0.0
2018-Jul-13 07:56N 52°28' E 004°40'0 0.0
2018-Jul-13 07:29N 52°28' E 004°40'0 0.0
2018-Jul-13 06:59N 52°28' E 004°40'0 0.0
2018-Jul-13 06:26N 52°28' E 004°40'0 0.0
2018-Jul-13 05:59N 52°28' E 004°40'0 0.0
2018-Jul-13 05:29N 52°28' E 004°40'0 0.0
2018-Jul-13 04:59N 52°28' E 004°40'0 0.0
2018-Jul-13 04:29N 52°28' E 004°40'0 0.0
2018-Jul-13 03:59N 52°28' E 004°40'0 0.0
2018-Jul-13 03:26N 52°28' E 004°40'0 0.0
2018-Jul-13 02:59N 52°28' E 004°40'0 0.0
2018-Jul-13 02:29N 52°28' E 004°40'0 0.0
2018-Jul-13 01:59N 52°28' E 004°40'  

Dump ship's entire track history